x

Grays Reef - 40 Nm Southeast Of Savannah, Ga (41008) Wave Buoy

11:50am - Sat 25th Oct 2014 All times are EDT. -4 hours from GMT.

  • Sig Wave height 2.0ft
  • Swell Direction
  • Peak Period 3s
  • Average Period 4s
  • Wind
    13mph, 18mph gusts
  • Sea Temp 74°f
  • Air Temp 67°f
  • Sea Pressure 1016.5mb
  • Grays Reef - 40 Nm Southeast Of Savannah, Ga
  • Grays Reef - 40 Nm Southeast Of Savannah, Ga

More Historic Weather Station data

Upgrade to MSW Pro to gain access to the past 30 days of data for over 8000 Wavebouys and Weather Stations around the globe.

Join Pro

Comparision Forecast

View Surf forecast
   
Sat 10/25 11:50am 2ft 3s 4s 13 18 mph 1016.5mb 74f 67f
10:50am 2ft 3s 4s 16 18 mph 1016.4mb 75f 66f
9:50am 2ft 10s 4s 16 18 mph 1016.5mb 75f 67f
8:50am 1.6ft 11s 4s 13 16 mph 1015.9mb 75f 67f
7:50am 1.6ft 10s 4s 11 13 mph 1015.6mb 75f 68f
6:50am 1.6ft 10s 5s 11 13 mph 1015.4mb 74f 69f
5:50am 1.6ft 10s 6s 11 13 mph 1015.3mb 74f 69f
4:50am 1.6ft 10s 6s 9 11 mph 1015.2mb 74f 70f
3:50am 1.6ft 10s 6s 7 9 mph 1015.2mb 74f 70f
2:50am 1.6ft 11s 7s 7 9 mph 1015.5mb 74f 70f
1:50am 1.6ft 11s 6s 7 9 mph 1015.7mb 74f 70f
12:50am 1.3ft 11s 6s 9 11 mph 1016.1mb 75f 70f
Fri 10/24 11:50pm 1.6ft 11s 6s 7 9 mph 1016.1mb 75f 70f
10:50pm 1.6ft 11s 6s 7
mph
1016mb 75f 69f
9:50pm 1.6ft 11s 6s 7
mph
1016mb 75f 69f
8:50pm 1.6ft 11s 6s 4 7 mph 1015.5mb 75f 69f
7:50pm 1.6ft 8s 5s 4 7 mph 1015.6mb 75f 69f
6:50pm 1.6ft 11s 5s 4 7 mph 1015.4mb 75f 68f
5:50pm 2ft 9s 5s 4 7 mph 1015.1mb 75f 69f
4:50pm 2ft 11s 5s 4 7 mph 1015.3mb 75f 69f
3:50pm 2ft 11s 5s 7 9 mph 1015.7mb 75f 69f
2:50pm 2ft 8s 5s 7 11 mph 1016.2mb 75f 69f
1:50pm 2ft 11s 4s 9 11 mph 1016.6mb 75f 68f
12:50pm 2ft 10s 4s 11 16 mph 1017.7mb 75f 68f
11:50am 2ft 12s 4s 11 13 mph 1018mb 75f 67f
10:50am 2.5ft 11s 4s 13 16 mph 1017.6mb 75f 67f
9:50am 2ft 9s 4s 13 18 mph 1017.4mb 75f 67f
8:50am 2ft 10s 5s 11 16 mph 1016.7mb 75f 67f
7:50am 1.6ft 10s 6s 9 11 mph 1016.7mb 75f 69f
6:50am 2ft 9s 5s 7 9 mph 1016.8mb 75f 69f
5:50am 2ft 9s 5s 7 11 mph 1016.3mb 75f 69f
4:50am 2ft 8s 5s 9 11 mph 1015.8mb 75f 68f
3:50am 1.6ft 9s 5s 9 13 mph 1016mb 75f 69f
2:50am 1.6ft 8s 5s 9 13 mph 1016.1mb 75f 68f
1:50am 1.6ft 9s 5s 9 13 mph 1016.5mb 75f 68f
12:50am 1.6ft 10s 5s 11 13 mph 1016.8mb 75f 69f
Thu 10/23 11:50pm 1.6ft 9s 5s 9 11 mph 1016.9mb 75f 68f
10:50pm 1.6ft 10s 6s 9 11 mph 1017.6mb 75f 68f
9:50pm 2ft 10s 5s 9 11 mph 1017.4mb 75f 68f
8:50pm 2ft 5s 5s 4 7 mph 1016.8mb 75f 67f
7:50pm 2ft 5s 5s 4 9 mph 1016.7mb 75f 67f
6:50pm 2ft 5s 5s 7 9 mph 1016.2mb 75f 66f
5:50pm 2ft 5s 5s 7
mph
1016.1mb 75f 66f
4:50pm 2.5ft 5s 4s 4 7 mph 1016.2mb 75f 66f
3:50pm 2.5ft 5s 5s 7 11 mph 1016.2mb 75f 65f
2:50pm 2.5ft 5s 4s 7 9 mph 1016.9mb 75f 64f
1:50pm 2.5ft 6s 4s 9 13 mph 1017.7mb 75f 64f
12:50pm 2.5ft 5s 4s 9 13 mph 1018.6mb 75f 64f
11:50am 3ft 6s 4s 11 13 mph 1018.7mb 75f 64f
10:50am 3ft 6s 5s 11 13 mph 1018.8mb 75f 64f
9:50am 3ft 5s 4s 11 16 mph 1018.5mb 75f 65f
8:50am 3.5ft 5s 4s 9 11 mph 1018.2mb 75f 65f
7:50am 3.5ft 5s 4s 11 16 mph 1017.7mb 75f 65f
6:50am 3.5ft 4s 4s 13 18 mph 1017.5mb 75f 65f
5:50am 3ft 4s 4s 18 22 mph 1017.1mb 75f 65f
4:50am 2.5ft 4s 4s 16 20 mph 1016.6mb 75f 65f
3:50am 2.5ft 5s 4s 13 18 mph 1016.7mb 75f 67f
2:50am 2.5ft 4s 4s 11 18 mph 1017.2mb 75f 67f
1:50am 2.5ft 4s 4s 13 18 mph 1017.3mb 75f 67f
12:50am 2.5ft 5s 4s 16 20 mph 1017.7mb 75f 67f
Wed 10/22 11:50pm 2.5ft 6s 4s 13 18 mph 1017.9mb 75f 68f
10:50pm 2.5ft 6s 4s 11 18 mph 1017.9mb 75f 68f
9:50pm 2.5ft 6s 4s 11 16 mph 1017.3mb 76f 68f
8:50pm 2.5ft 6s 5s 13 18 mph 1017mb 76f 69f
7:50pm 2.5ft 5s 5s 11 16 mph 1016.8mb 76f 67f
6:50pm 2.5ft 6s 5s 7 11 mph 1016.8mb 76f 67f
5:50pm 2.5ft 6s 5s 4 11 mph 1016.4mb 76f 67f
4:50pm 3ft 6s 4s 9 13 mph 1016.3mb 76f 66f
3:50pm 3.5ft 6s 4s 11 13 mph 1016.4mb 76f 66f
2:50pm 3.5ft 6s 4s 13 18 mph 1016.6mb 76f 65f
1:50pm 4ft 5s 4s 16 18 mph 1016.7mb 76f 65f
12:50pm 4.5ft 6s 5s 18 22 mph 1017.3mb 76f 65f
11:50am 4.5ft 5s 4s 18 22 mph 1017.6mb 76f 64f
10:50am 4.5ft 5s 4s 20 25 mph 1017.2mb 76f 65f
9:50am 4.5ft 5s 4s 22 29 mph 1016.5mb 76f 65f
8:50am 3.5ft 5s 4s 20 25 mph 1016mb 76f 66f
7:50am 3ft 5s 4s 20 25 mph 1015mb 76f 67f
6:50am 3ft 5s 4s 20 25 mph 1014.2mb 76f 68f
5:50am 3ft 4s 4s 18 22 mph 1013.8mb 76f 68f
4:50am 2.5ft 4s 4s 18 20 mph 1013.4mb 76f 69f
3:50am 2ft 3s 4s 18 22 mph 1013.3mb 76f 71f
2:50am 1.6ft 8s 4s 18 20 mph 1013.5mb 76f 72f
1:50am 1.6ft 8s 4s 11 13 mph 1014mb 76f 74f
12:50am 1.3ft 12s 4s 13 16 mph 1014.2mb 76f 74f
Tue 10/21 11:50pm 1.3ft 9s 7s 16 18 mph 1014.3mb 76f 75f
10:50pm 1.3ft 9s 7s 9 11 mph 1014.5mb 76f 76f
9:50pm 1.3ft 10s 8s 9 11 mph 1014mb 76f 75f
8:50pm 1.3ft 9s 7s 7 9 mph 1013.5mb 76f 75f
7:50pm 1.3ft 9s 7s 7
mph
1012.9mb 76f 74f
6:50pm 1.6ft 9s 6s 9 11 mph 1012.7mb 76f 74f
5:50pm 1.6ft 9s 6s 7 9 mph 1012.5mb 76f 74f
4:50pm 1.6ft 8s 6s 4 7 mph 1012.6mb 77f 74f